sensor_id;sensor_type;location;lat;lon;timestamp;P1;durP1;ratioP1;P2;durP2;ratioP2
44764;SDS011;30484;52.382;5.260;2023-05-19T00:01:03;17.42;;;5.13;;
44764;SDS011;30484;52.382;5.260;2023-05-19T00:03:34;22.75;;;4.63;;
44764;SDS011;30484;52.382;5.260;2023-05-19T00:06:06;13.95;;;4.68;;
44764;SDS011;30484;52.382;5.260;2023-05-19T00:08:36;22.77;;;4.85;;
44764;SDS011;30484;52.382;5.260;2023-05-19T00:11:06;9.40;;;4.55;;
44764;SDS011;30484;52.382;5.260;2023-05-19T00:13:37;18.20;;;5.50;;
44764;SDS011;30484;52.382;5.260;2023-05-19T00:16:06;19.25;;;5.50;;
44764;SDS011;30484;52.382;5.260;2023-05-19T00:18:36;13.20;;;5.15;;
44764;SDS011;30484;52.382;5.260;2023-05-19T00:21:06;12.43;;;4.63;;
44764;SDS011;30484;52.382;5.260;2023-05-19T00:23:34;16.38;;;5.10;;
44764;SDS011;30484;52.382;5.260;2023-05-19T00:26:03;18.02;;;5.30;;
44764;SDS011;30484;52.382;5.260;2023-05-19T00:28:33;19.33;;;5.70;;
44764;SDS011;30484;52.382;5.260;2023-05-19T00:31:05;23.90;;;5.25;;
44764;SDS011;30484;52.382;5.260;2023-05-19T00:33:34;20.75;;;4.88;;
44764;SDS011;30484;52.382;5.260;2023-05-19T00:36:03;18.17;;;4.78;;
44764;SDS011;30484;52.382;5.260;2023-05-19T00:38:33;14.52;;;5.03;;
44764;SDS011;30484;52.382;5.260;2023-05-19T00:41:03;13.90;;;5.05;;
44764;SDS011;30484;52.382;5.260;2023-05-19T00:43:33;19.33;;;5.28;;
44764;SDS011;30484;52.382;5.260;2023-05-19T00:46:04;16.92;;;5.30;;
44764;SDS011;30484;52.382;5.260;2023-05-19T00:48:33;19.35;;;5.68;;
44764;SDS011;30484;52.382;5.260;2023-05-19T00:51:02;15.52;;;5.85;;
44764;SDS011;30484;52.382;5.260;2023-05-19T00:53:32;21.55;;;5.75;;
44764;SDS011;30484;52.382;5.260;2023-05-19T00:56:01;26.17;;;6.20;;
44764;SDS011;30484;52.382;5.260;2023-05-19T00:58:31;16.17;;;5.63;;
44764;SDS011;30484;52.382;5.260;2023-05-19T01:01:01;22.67;;;5.97;;
44764;SDS011;30484;52.382;5.260;2023-05-19T01:03:34;20.17;;;4.95;;
44764;SDS011;30484;52.382;5.260;2023-05-19T01:06:06;18.73;;;6.07;;
44764;SDS011;30484;52.382;5.260;2023-05-19T01:08:39;24.38;;;6.13;;
44764;SDS011;30484;52.382;5.260;2023-05-19T01:11:08;24.23;;;6.13;;
44764;SDS011;30484;52.382;5.260;2023-05-19T01:13:39;18.88;;;5.47;;
44764;SDS011;30484;52.382;5.260;2023-05-19T01:16:11;19.42;;;6.03;;
44764;SDS011;30484;52.382;5.260;2023-05-19T01:18:46;18.17;;;6.32;;
44764;SDS011;30484;52.382;5.260;2023-05-19T01:21:39;16.75;;;5.80;;
44764;SDS011;30484;52.382;5.260;2023-05-19T01:28:24;23.48;;;6.45;;
44764;SDS011;30484;52.382;5.260;2023-05-19T01:31:10;17.63;;;6.07;;
44764;SDS011;30484;52.382;5.260;2023-05-19T01:33:40;23.45;;;6.32;;
44764;SDS011;30484;52.382;5.260;2023-05-19T01:36:10;19.75;;;6.55;;
44764;SDS011;30484;52.382;5.260;2023-05-19T01:38:40;22.75;;;6.32;;
44764;SDS011;30484;52.382;5.260;2023-05-19T01:41:11;25.38;;;6.25;;
44764;SDS011;30484;52.382;5.260;2023-05-19T01:43:41;14.13;;;6.88;;
44764;SDS011;30484;52.382;5.260;2023-05-19T01:46:13;26.73;;;6.90;;
44764;SDS011;30484;52.382;5.260;2023-05-19T01:48:42;22.25;;;6.57;;
44764;SDS011;30484;52.382;5.260;2023-05-19T01:51:11;22.75;;;7.68;;
44764;SDS011;30484;52.382;5.260;2023-05-19T01:53:40;21.45;;;6.85;;
44764;SDS011;30484;52.382;5.260;2023-05-19T01:56:10;21.23;;;6.78;;
44764;SDS011;30484;52.382;5.260;2023-05-19T01:58:44;19.02;;;6.75;;
44764;SDS011;30484;52.382;5.260;2023-05-19T02:01:21;27.23;;;7.43;;
44764;SDS011;30484;52.382;5.260;2023-05-19T02:04:12;20.70;;;7.30;;
44764;SDS011;30484;52.382;5.260;2023-05-19T02:06:52;24.48;;;7.90;;
44764;SDS011;30484;52.382;5.260;2023-05-19T02:09:31;24.17;;;7.40;;
44764;SDS011;30484;52.382;5.260;2023-05-19T02:12:08;28.08;;;7.60;;
44764;SDS011;30484;52.382;5.260;2023-05-19T02:14:48;31.58;;;8.50;;
44764;SDS011;30484;52.382;5.260;2023-05-19T02:17:25;26.50;;;7.90;;
44764;SDS011;30484;52.382;5.260;2023-05-19T02:19:58;24.13;;;8.95;;
44764;SDS011;30484;52.382;5.260;2023-05-19T02:22:27;24.77;;;8.82;;
44764;SDS011;30484;52.382;5.260;2023-05-19T02:24:57;26.98;;;8.02;;
44764;SDS011;30484;52.382;5.260;2023-05-19T02:27:25;19.13;;;7.78;;
44764;SDS011;30484;52.382;5.260;2023-05-19T02:29:55;21.33;;;7.93;;
44764;SDS011;30484;52.382;5.260;2023-05-19T02:32:26;22.65;;;7.68;;
44764;SDS011;30484;52.382;5.260;2023-05-19T02:34:56;23.27;;;8.23;;
44764;SDS011;30484;52.382;5.260;2023-05-19T02:37:25;27.90;;;7.93;;
44764;SDS011;30484;52.382;5.260;2023-05-19T02:39:55;28.63;;;8.25;;
44764;SDS011;30484;52.382;5.260;2023-05-19T02:42:24;22.70;;;8.27;;
44764;SDS011;30484;52.382;5.260;2023-05-19T02:44:53;26.90;;;8.05;;
44764;SDS011;30484;52.382;5.260;2023-05-19T02:47:24;27.77;;;8.70;;
44764;SDS011;30484;52.382;5.260;2023-05-19T02:49:56;28.92;;;8.80;;
44764;SDS011;30484;52.382;5.260;2023-05-19T02:52:26;19.52;;;7.70;;
44764;SDS011;30484;52.382;5.260;2023-05-19T02:54:56;23.92;;;8.60;;
44764;SDS011;30484;52.382;5.260;2023-05-19T02:57:25;21.73;;;8.57;;
44764;SDS011;30484;52.382;5.260;2023-05-19T02:59:57;26.40;;;8.23;;
44764;SDS011;30484;52.382;5.260;2023-05-19T03:02:29;29.52;;;8.65;;
44764;SDS011;30484;52.382;5.260;2023-05-19T03:04:59;27.88;;;8.10;;
44764;SDS011;30484;52.382;5.260;2023-05-19T03:07:29;20.15;;;8.90;;
44764;SDS011;30484;52.382;5.260;2023-05-19T03:09:59;22.85;;;9.90;;
44764;SDS011;30484;52.382;5.260;2023-05-19T03:12:33;27.13;;;9.23;;
44764;SDS011;30484;52.382;5.260;2023-05-19T03:15:16;35.28;;;8.93;;
44764;SDS011;30484;52.382;5.260;2023-05-19T03:17:50;28.30;;;9.27;;
44764;SDS011;30484;52.382;5.260;2023-05-19T03:20:20;32.53;;;9.50;;
44764;SDS011;30484;52.382;5.260;2023-05-19T03:22:50;33.42;;;10.15;;
44764;SDS011;30484;52.382;5.260;2023-05-19T03:25:18;25.55;;;9.43;;
44764;SDS011;30484;52.382;5.260;2023-05-19T03:27:47;25.67;;;9.07;;
44764;SDS011;30484;52.382;5.260;2023-05-19T03:30:15;30.02;;;9.82;;
44764;SDS011;30484;52.382;5.260;2023-05-19T03:32:44;25.48;;;9.30;;
44764;SDS011;30484;52.382;5.260;2023-05-19T03:35:15;33.90;;;9.35;;
44764;SDS011;30484;52.382;5.260;2023-05-19T03:37:50;26.60;;;8.80;;
44764;SDS011;30484;52.382;5.260;2023-05-19T03:40:19;36.10;;;10.15;;
44764;SDS011;30484;52.382;5.260;2023-05-19T03:42:48;31.20;;;10.32;;
44764;SDS011;30484;52.382;5.260;2023-05-19T03:45:16;28.45;;;9.40;;
44764;SDS011;30484;52.382;5.260;2023-05-19T03:47:45;27.63;;;9.98;;
44764;SDS011;30484;52.382;5.260;2023-05-19T03:50:15;29.17;;;11.27;;
44764;SDS011;30484;52.382;5.260;2023-05-19T03:52:44;28.85;;;9.55;;
44764;SDS011;30484;52.382;5.260;2023-05-19T03:55:14;35.67;;;10.48;;
44764;SDS011;30484;52.382;5.260;2023-05-19T03:57:45;32.83;;;10.18;;
44764;SDS011;30484;52.382;5.260;2023-05-19T04:00:14;26.27;;;10.45;;
44764;SDS011;30484;52.382;5.260;2023-05-19T04:02:43;44.38;;;11.93;;
44764;SDS011;30484;52.382;5.260;2023-05-19T04:05:12;34.42;;;11.98;;
44764;SDS011;30484;52.382;5.260;2023-05-19T04:07:44;38.58;;;11.55;;
44764;SDS011;30484;52.382;5.260;2023-05-19T04:10:13;33.22;;;11.73;;
44764;SDS011;30484;52.382;5.260;2023-05-19T04:12:41;34.38;;;11.10;;
44764;SDS011;30484;52.382;5.260;2023-05-19T04:15:10;40.28;;;12.20;;
44764;SDS011;30484;52.382;5.260;2023-05-19T04:17:39;39.47;;;11.40;;
44764;SDS011;30484;52.382;5.260;2023-05-19T04:20:08;33.55;;;11.55;;
44764;SDS011;30484;52.382;5.260;2023-05-19T04:22:41;37.67;;;11.52;;
44764;SDS011;30484;52.382;5.260;2023-05-19T04:25:09;40.13;;;12.18;;
44764;SDS011;30484;52.382;5.260;2023-05-19T04:27:38;35.50;;;11.95;;
44764;SDS011;30484;52.382;5.260;2023-05-19T04:30:08;33.45;;;12.27;;
44764;SDS011;30484;52.382;5.260;2023-05-19T04:32:37;29.80;;;13.02;;
44764;SDS011;30484;52.382;5.260;2023-05-19T04:35:07;41.13;;;12.45;;
44764;SDS011;30484;52.382;5.260;2023-05-19T04:37:40;32.85;;;12.70;;
44764;SDS011;30484;52.382;5.260;2023-05-19T04:40:12;38.67;;;12.38;;
44764;SDS011;30484;52.382;5.260;2023-05-19T04:42:43;43.03;;;13.20;;
44764;SDS011;30484;52.382;5.260;2023-05-19T04:45:15;42.35;;;13.13;;
44764;SDS011;30484;52.382;5.260;2023-05-19T04:47:44;38.33;;;13.80;;
44764;SDS011;30484;52.382;5.260;2023-05-19T04:50:16;39.92;;;12.77;;
44764;SDS011;30484;52.382;5.260;2023-05-19T04:52:48;37.38;;;14.20;;
44764;SDS011;30484;52.382;5.260;2023-05-19T04:55:16;42.95;;;13.52;;
44764;SDS011;30484;52.382;5.260;2023-05-19T05:03:05;30.67;;;12.70;;
44764;SDS011;30484;52.382;5.260;2023-05-19T05:05:34;38.80;;;13.57;;
44764;SDS011;30484;52.382;5.260;2023-05-19T05:08:12;36.20;;;13.25;;
44764;SDS011;30484;52.382;5.260;2023-05-19T05:10:49;45.28;;;14.23;;
44764;SDS011;30484;52.382;5.260;2023-05-19T05:13:20;35.08;;;13.90;;
44764;SDS011;30484;52.382;5.260;2023-05-19T05:15:54;35.13;;;12.85;;
44764;SDS011;30484;52.382;5.260;2023-05-19T05:18:28;35.80;;;13.43;;
44764;SDS011;30484;52.382;5.260;2023-05-19T05:21:00;34.08;;;13.57;;
44764;SDS011;30484;52.382;5.260;2023-05-19T05:23:34;31.58;;;13.27;;
44764;SDS011;30484;52.382;5.260;2023-05-19T05:26:06;32.85;;;12.88;;
44764;SDS011;30484;52.382;5.260;2023-05-19T05:28:46;32.47;;;11.23;;
44764;SDS011;30484;52.382;5.260;2023-05-19T05:31:17;28.50;;;10.75;;
44764;SDS011;30484;52.382;5.260;2023-05-19T05:33:48;29.00;;;10.20;;
44764;SDS011;30484;52.382;5.260;2023-05-19T05:36:19;30.40;;;9.88;;
44764;SDS011;30484;52.382;5.260;2023-05-19T05:38:53;26.52;;;10.07;;
44764;SDS011;30484;52.382;5.260;2023-05-19T05:41:25;26.92;;;8.65;;
44764;SDS011;30484;52.382;5.260;2023-05-19T05:44:04;16.58;;;8.88;;
44764;SDS011;30484;52.382;5.260;2023-05-19T05:46:42;21.27;;;9.52;;
44764;SDS011;30484;52.382;5.260;2023-05-19T05:49:19;21.70;;;9.38;;
44764;SDS011;30484;52.382;5.260;2023-05-19T05:51:54;27.08;;;9.07;;
44764;SDS011;30484;52.382;5.260;2023-05-19T05:54:39;23.40;;;9.40;;
44764;SDS011;30484;52.382;5.260;2023-05-19T05:57:11;20.55;;;8.75;;
44764;SDS011;30484;52.382;5.260;2023-05-19T05:59:41;26.25;;;8.10;;
44764;SDS011;30484;52.382;5.260;2023-05-19T06:02:13;19.02;;;8.27;;
44764;SDS011;30484;52.382;5.260;2023-05-19T06:04:57;24.67;;;8.00;;
44764;SDS011;30484;52.382;5.260;2023-05-19T06:07:32;19.90;;;8.52;;
44764;SDS011;30484;52.382;5.260;2023-05-19T06:10:04;21.52;;;8.18;;
44764;SDS011;30484;52.382;5.260;2023-05-19T06:12:38;28.58;;;8.32;;
44764;SDS011;30484;52.382;5.260;2023-05-19T06:15:11;20.20;;;7.10;;
44764;SDS011;30484;52.382;5.260;2023-05-19T06:17:44;22.40;;;7.88;;
44764;SDS011;30484;52.382;5.260;2023-05-19T06:20:14;29.58;;;8.35;;
44764;SDS011;30484;52.382;5.260;2023-05-19T06:22:47;18.48;;;7.45;;
44764;SDS011;30484;52.382;5.260;2023-05-19T06:25:26;18.38;;;7.45;;
44764;SDS011;30484;52.382;5.260;2023-05-19T06:27:55;23.25;;;7.82;;
44764;SDS011;30484;52.382;5.260;2023-05-19T06:30:28;19.20;;;7.35;;
44764;SDS011;30484;52.382;5.260;2023-05-19T06:33:00;19.55;;;7.18;;
44764;SDS011;30484;52.382;5.260;2023-05-19T06:35:35;23.23;;;8.25;;
44764;SDS011;30484;52.382;5.260;2023-05-19T06:38:11;16.52;;;7.25;;
44764;SDS011;30484;52.382;5.260;2023-05-19T06:40:45;15.63;;;7.28;;
44764;SDS011;30484;52.382;5.260;2023-05-19T06:43:16;15.05;;;7.18;;
44764;SDS011;30484;52.382;5.260;2023-05-19T06:45:48;15.18;;;7.45;;
44764;SDS011;30484;52.382;5.260;2023-05-19T06:48:22;19.27;;;7.25;;
44764;SDS011;30484;52.382;5.260;2023-05-19T06:51:02;16.75;;;6.82;;
44764;SDS011;30484;52.382;5.260;2023-05-19T06:53:32;16.08;;;6.78;;
44764;SDS011;30484;52.382;5.260;2023-05-19T06:56:03;20.73;;;6.75;;
44764;SDS011;30484;52.382;5.260;2023-05-19T06:58:36;18.85;;;6.63;;
44764;SDS011;30484;52.382;5.260;2023-05-19T07:01:16;22.00;;;6.97;;
44764;SDS011;30484;52.382;5.260;2023-05-19T07:03:47;14.80;;;6.25;;
44764;SDS011;30484;52.382;5.260;2023-05-19T07:06:17;23.70;;;6.75;;
44764;SDS011;30484;52.382;5.260;2023-05-19T07:08:49;17.75;;;6.22;;
44764;SDS011;30484;52.382;5.260;2023-05-19T07:11:21;18.58;;;6.18;;
44764;SDS011;30484;52.382;5.260;2023-05-19T07:13:56;15.57;;;6.05;;
44764;SDS011;30484;52.382;5.260;2023-05-19T07:16:32;14.20;;;5.40;;
44764;SDS011;30484;52.382;5.260;2023-05-19T07:19:07;16.73;;;5.75;;
44764;SDS011;30484;52.382;5.260;2023-05-19T07:21:40;16.80;;;5.32;;
44764;SDS011;30484;52.382;5.260;2023-05-19T07:24:10;14.40;;;5.32;;
44764;SDS011;30484;52.382;5.260;2023-05-19T07:26:43;17.17;;;6.45;;
44764;SDS011;30484;52.382;5.260;2023-05-19T07:29:14;16.25;;;5.90;;
44764;SDS011;30484;52.382;5.260;2023-05-19T07:31:44;15.13;;;5.35;;
44764;SDS011;30484;52.382;5.260;2023-05-19T07:34:15;17.80;;;5.18;;
44764;SDS011;30484;52.382;5.260;2023-05-19T07:36:46;15.65;;;5.10;;
44764;SDS011;30484;52.382;5.260;2023-05-19T07:39:18;13.50;;;5.18;;
44764;SDS011;30484;52.382;5.260;2023-05-19T07:41:49;15.40;;;4.60;;
44764;SDS011;30484;52.382;5.260;2023-05-19T07:44:22;13.10;;;5.30;;
44764;SDS011;30484;52.382;5.260;2023-05-19T07:46:52;15.85;;;5.35;;
44764;SDS011;30484;52.382;5.260;2023-05-19T07:49:22;16.48;;;5.30;;
44764;SDS011;30484;52.382;5.260;2023-05-19T07:51:51;12.80;;;4.68;;
44764;SDS011;30484;52.382;5.260;2023-05-19T07:54:28;13.05;;;5.05;;
44764;SDS011;30484;52.382;5.260;2023-05-19T07:56:59;14.85;;;4.68;;
44764;SDS011;30484;52.382;5.260;2023-05-19T07:59:31;16.25;;;4.35;;
44764;SDS011;30484;52.382;5.260;2023-05-19T08:02:02;11.35;;;4.50;;
44764;SDS011;30484;52.382;5.260;2023-05-19T08:04:40;18.35;;;4.78;;
44764;SDS011;30484;52.382;5.260;2023-05-19T08:07:10;14.43;;;4.90;;
44764;SDS011;30484;52.382;5.260;2023-05-19T08:09:39;14.20;;;4.82;;
44764;SDS011;30484;52.382;5.260;2023-05-19T08:12:12;12.88;;;4.13;;
44764;SDS011;30484;52.382;5.260;2023-05-19T08:14:42;15.77;;;4.78;;
44764;SDS011;30484;52.382;5.260;2023-05-19T08:17:13;12.45;;;4.55;;
44764;SDS011;30484;52.382;5.260;2023-05-19T08:19:46;14.68;;;4.57;;
44764;SDS011;30484;52.382;5.260;2023-05-19T08:22:17;13.02;;;4.10;;
44764;SDS011;30484;52.382;5.260;2023-05-19T08:24:47;19.17;;;4.50;;
44764;SDS011;30484;52.382;5.260;2023-05-19T08:27:32;18.17;;;4.53;;
44764;SDS011;30484;52.382;5.260;2023-05-19T08:30:01;13.05;;;4.68;;
44764;SDS011;30484;52.382;5.260;2023-05-19T08:32:36;13.13;;;3.90;;
44764;SDS011;30484;52.382;5.260;2023-05-19T08:35:09;15.27;;;4.15;;
44764;SDS011;30484;52.382;5.260;2023-05-19T08:37:39;14.50;;;4.38;;
44764;SDS011;30484;52.382;5.260;2023-05-19T08:40:10;12.93;;;4.22;;
44764;SDS011;30484;52.382;5.260;2023-05-19T08:42:49;21.92;;;4.93;;
44764;SDS011;30484;52.382;5.260;2023-05-19T08:45:19;12.90;;;4.47;;
44764;SDS011;30484;52.382;5.260;2023-05-19T08:47:53;13.38;;;4.32;;
44764;SDS011;30484;52.382;5.260;2023-05-19T08:50:28;16.27;;;4.40;;
44764;SDS011;30484;52.382;5.260;2023-05-19T08:53:03;14.20;;;4.07;;
44764;SDS011;30484;52.382;5.260;2023-05-19T08:56:00;9.45;;;3.63;;
44764;SDS011;30484;52.382;5.260;2023-05-19T08:58:40;12.30;;;3.92;;
44764;SDS011;30484;52.382;5.260;2023-05-19T09:01:12;12.00;;;3.58;;
44764;SDS011;30484;52.382;5.260;2023-05-19T09:03:46;14.65;;;3.80;;
44764;SDS011;30484;52.382;5.260;2023-05-19T09:06:20;16.58;;;4.13;;
44764;SDS011;30484;52.382;5.260;2023-05-19T09:08:50;9.75;;;3.33;;
44764;SDS011;30484;52.382;5.260;2023-05-19T09:11:22;17.02;;;6.97;;
44764;SDS011;30484;52.382;5.260;2023-05-19T09:13:56;10.23;;;3.55;;
44764;SDS011;30484;52.382;5.260;2023-05-19T09:16:26;12.60;;;3.22;;
44764;SDS011;30484;52.382;5.260;2023-05-19T09:18:59;15.70;;;4.45;;
44764;SDS011;30484;52.382;5.260;2023-05-19T09:21:34;14.02;;;3.67;;
44764;SDS011;30484;52.382;5.260;2023-05-19T09:24:05;20.88;;;3.90;;
44764;SDS011;30484;52.382;5.260;2023-05-19T09:26:37;16.27;;;3.90;;
44764;SDS011;30484;52.382;5.260;2023-05-19T09:29:12;12.23;;;3.85;;
44764;SDS011;30484;52.382;5.260;2023-05-19T09:31:46;10.30;;;3.17;;
44764;SDS011;30484;52.382;5.260;2023-05-19T09:34:17;14.13;;;3.30;;
44764;SDS011;30484;52.382;5.260;2023-05-19T09:36:48;11.48;;;3.53;;
44764;SDS011;30484;52.382;5.260;2023-05-19T09:39:23;11.77;;;3.40;;
44764;SDS011;30484;52.382;5.260;2023-05-19T09:41:54;14.48;;;3.70;;
44764;SDS011;30484;52.382;5.260;2023-05-19T09:44:26;11.52;;;4.25;;
44764;SDS011;30484;52.382;5.260;2023-05-19T09:46:57;16.45;;;3.90;;
44764;SDS011;30484;52.382;5.260;2023-05-19T09:52:03;13.10;;;3.17;;
44764;SDS011;30484;52.382;5.260;2023-05-19T09:54:38;11.80;;;3.25;;
44764;SDS011;30484;52.382;5.260;2023-05-19T09:57:09;11.15;;;2.70;;
44764;SDS011;30484;52.382;5.260;2023-05-19T09:59:42;9.88;;;3.25;;
44764;SDS011;30484;52.382;5.260;2023-05-19T10:02:14;7.28;;;2.33;;
44764;SDS011;30484;52.382;5.260;2023-05-19T10:04:50;13.27;;;2.60;;
44764;SDS011;30484;52.382;5.260;2023-05-19T10:07:21;11.48;;;2.85;;
44764;SDS011;30484;52.382;5.260;2023-05-19T10:09:52;7.70;;;2.50;;
44764;SDS011;30484;52.382;5.260;2023-05-19T10:12:26;9.52;;;2.60;;
44764;SDS011;30484;52.382;5.260;2023-05-19T10:15:05;10.40;;;2.45;;
44764;SDS011;30484;52.382;5.260;2023-05-19T10:17:39;14.82;;;2.97;;
44764;SDS011;30484;52.382;5.260;2023-05-19T10:20:13;9.83;;;2.40;;
44764;SDS011;30484;52.382;5.260;2023-05-19T10:22:43;11.00;;;2.15;;
44764;SDS011;30484;52.382;5.260;2023-05-19T10:25:14;9.75;;;2.50;;
44764;SDS011;30484;52.382;5.260;2023-05-19T10:27:49;7.60;;;2.50;;
44764;SDS011;30484;52.382;5.260;2023-05-19T10:30:37;9.95;;;2.58;;
44764;SDS011;30484;52.382;5.260;2023-05-19T10:33:12;8.80;;;2.15;;
44764;SDS011;30484;52.382;5.260;2023-05-19T10:35:53;9.13;;;3.00;;
44764;SDS011;30484;52.382;5.260;2023-05-19T10:38:45;6.00;;;2.50;;
44764;SDS011;30484;52.382;5.260;2023-05-19T10:41:31;9.40;;;2.40;;
44764;SDS011;30484;52.382;5.260;2023-05-19T10:44:19;8.35;;;2.03;;
44764;SDS011;30484;52.382;5.260;2023-05-19T10:47:06;6.75;;;2.03;;
44764;SDS011;30484;52.382;5.260;2023-05-19T10:49:42;9.30;;;2.65;;
44764;SDS011;30484;52.382;5.260;2023-05-19T10:52:20;8.07;;;2.30;;
44764;SDS011;30484;52.382;5.260;2023-05-19T10:54:53;8.48;;;2.20;;
44764;SDS011;30484;52.382;5.260;2023-05-19T10:57:25;10.15;;;2.55;;
44764;SDS011;30484;52.382;5.260;2023-05-19T10:59:57;9.45;;;2.60;;
44764;SDS011;30484;52.382;5.260;2023-05-19T11:02:40;8.82;;;2.45;;
44764;SDS011;30484;52.382;5.260;2023-05-19T11:05:11;10.85;;;2.22;;
44764;SDS011;30484;52.382;5.260;2023-05-19T11:07:55;11.73;;;2.47;;
44764;SDS011;30484;52.382;5.260;2023-05-19T11:10:31;8.23;;;2.40;;
44764;SDS011;30484;52.382;5.260;2023-05-19T11:13:03;11.70;;;2.95;;
44764;SDS011;30484;52.382;5.260;2023-05-19T11:15:35;10.70;;;2.70;;
44764;SDS011;30484;52.382;5.260;2023-05-19T11:18:05;8.00;;;2.83;;
44764;SDS011;30484;52.382;5.260;2023-05-19T11:20:39;7.65;;;2.58;;
44764;SDS011;30484;52.382;5.260;2023-05-19T11:23:09;7.93;;;2.55;;
44764;SDS011;30484;52.382;5.260;2023-05-19T11:25:48;13.40;;;2.53;;
44764;SDS011;30484;52.382;5.260;2023-05-19T11:28:20;12.20;;;2.55;;
44764;SDS011;30484;52.382;5.260;2023-05-19T11:30:55;11.48;;;2.70;;
44764;SDS011;30484;52.382;5.260;2023-05-19T11:33:32;8.90;;;2.60;;
44764;SDS011;30484;52.382;5.260;2023-05-19T11:36:11;9.15;;;2.35;;
44764;SDS011;30484;52.382;5.260;2023-05-19T11:38:42;7.78;;;2.28;;
44764;SDS011;30484;52.382;5.260;2023-05-19T11:41:15;8.50;;;2.10;;
44764;SDS011;30484;52.382;5.260;2023-05-19T11:43:46;9.35;;;2.60;;
44764;SDS011;30484;52.382;5.260;2023-05-19T11:46:19;13.93;;;2.83;;
44764;SDS011;30484;52.382;5.260;2023-05-19T11:48:51;8.07;;;2.63;;
44764;SDS011;30484;52.382;5.260;2023-05-19T11:51:25;16.13;;;2.72;;
44764;SDS011;30484;52.382;5.260;2023-05-19T11:53:58;10.93;;;2.63;;
44764;SDS011;30484;52.382;5.260;2023-05-19T11:56:32;10.93;;;2.90;;
44764;SDS011;30484;52.382;5.260;2023-05-19T11:59:04;10.52;;;2.80;;
44764;SDS011;30484;52.382;5.260;2023-05-19T12:01:39;11.60;;;2.58;;
44764;SDS011;30484;52.382;5.260;2023-05-19T12:04:15;8.88;;;2.17;;
44764;SDS011;30484;52.382;5.260;2023-05-19T12:06:56;10.55;;;2.65;;
44764;SDS011;30484;52.382;5.260;2023-05-19T12:09:28;11.35;;;2.90;;
44764;SDS011;30484;52.382;5.260;2023-05-19T12:12:12;12.32;;;2.38;;
44764;SDS011;30484;52.382;5.260;2023-05-19T12:14:53;11.38;;;2.83;;
44764;SDS011;30484;52.382;5.260;2023-05-19T12:17:31;9.57;;;2.55;;
44764;SDS011;30484;52.382;5.260;2023-05-19T12:20:14;8.43;;;2.53;;
44764;SDS011;30484;52.382;5.260;2023-05-19T12:22:55;12.35;;;3.20;;
44764;SDS011;30484;52.382;5.260;2023-05-19T12:25:32;10.50;;;2.70;;
44764;SDS011;30484;52.382;5.260;2023-05-19T12:28:12;8.15;;;2.90;;
44764;SDS011;30484;52.382;5.260;2023-05-19T12:31:07;8.15;;;2.78;;
44764;SDS011;30484;52.382;5.260;2023-05-19T12:33:40;9.10;;;2.40;;
44764;SDS011;30484;52.382;5.260;2023-05-19T12:39:00;9.23;;;2.65;;
44764;SDS011;30484;52.382;5.260;2023-05-19T12:41:33;7.55;;;2.25;;
44764;SDS011;30484;52.382;5.260;2023-05-19T12:44:14;13.32;;;2.50;;
44764;SDS011;30484;52.382;5.260;2023-05-19T12:46:50;8.55;;;2.65;;
44764;SDS011;30484;52.382;5.260;2023-05-19T12:49:23;7.72;;;2.72;;
44764;SDS011;30484;52.382;5.260;2023-05-19T12:51:59;8.65;;;2.20;;
44764;SDS011;30484;52.382;5.260;2023-05-19T12:54:35;12.75;;;2.60;;
44764;SDS011;30484;52.382;5.260;2023-05-19T12:57:14;10.88;;;2.35;;
44764;SDS011;30484;52.382;5.260;2023-05-19T12:59:51;11.87;;;2.90;;
44764;SDS011;30484;52.382;5.260;2023-05-19T13:02:20;11.60;;;2.70;;
44764;SDS011;30484;52.382;5.260;2023-05-19T13:05:06;11.75;;;2.45;;
44764;SDS011;30484;52.382;5.260;2023-05-19T13:07:37;12.65;;;5.45;;
44764;SDS011;30484;52.382;5.260;2023-05-19T13:10:15;7.95;;;2.60;;
44764;SDS011;30484;52.382;5.260;2023-05-19T13:12:48;10.52;;;2.60;;
44764;SDS011;30484;52.382;5.260;2023-05-19T13:15:27;9.20;;;2.90;;
44764;SDS011;30484;52.382;5.260;2023-05-19T13:18:01;12.68;;;3.15;;
44764;SDS011;30484;52.382;5.260;2023-05-19T13:20:38;12.20;;;3.10;;
44764;SDS011;30484;52.382;5.260;2023-05-19T13:23:12;8.50;;;2.85;;
44764;SDS011;30484;52.382;5.260;2023-05-19T13:25:44;10.93;;;3.28;;
44764;SDS011;30484;52.382;5.260;2023-05-19T13:28:16;8.80;;;2.85;;
44764;SDS011;30484;52.382;5.260;2023-05-19T13:30:49;13.18;;;3.25;;
44764;SDS011;30484;52.382;5.260;2023-05-19T13:33:25;8.52;;;2.65;;
44764;SDS011;30484;52.382;5.260;2023-05-19T13:35:55;9.30;;;2.90;;
44764;SDS011;30484;52.382;5.260;2023-05-19T13:38:26;9.93;;;2.47;;
44764;SDS011;30484;52.382;5.260;2023-05-19T13:40:59;10.25;;;2.95;;
44764;SDS011;30484;52.382;5.260;2023-05-19T13:43:28;10.23;;;2.90;;
44764;SDS011;30484;52.382;5.260;2023-05-19T13:45:59;7.38;;;2.38;;
44764;SDS011;30484;52.382;5.260;2023-05-19T13:48:29;10.18;;;2.60;;
44764;SDS011;30484;52.382;5.260;2023-05-19T13:50:58;15.68;;;2.83;;
44764;SDS011;30484;52.382;5.260;2023-05-19T13:53:33;6.63;;;2.40;;
44764;SDS011;30484;52.382;5.260;2023-05-19T13:56:13;10.35;;;2.63;;
44764;SDS011;30484;52.382;5.260;2023-05-19T13:58:44;9.32;;;2.40;;
44764;SDS011;30484;52.382;5.260;2023-05-19T14:01:20;11.18;;;2.75;;
44764;SDS011;30484;52.382;5.260;2023-05-19T14:06:23;7.18;;;1.95;;
44764;SDS011;30484;52.382;5.260;2023-05-19T14:08:56;5.95;;;2.58;;
44764;SDS011;30484;52.382;5.260;2023-05-19T14:11:28;9.05;;;2.70;;
44764;SDS011;30484;52.382;5.260;2023-05-19T14:14:00;8.32;;;2.72;;
44764;SDS011;30484;52.382;5.260;2023-05-19T14:16:29;5.78;;;2.40;;
44764;SDS011;30484;52.382;5.260;2023-05-19T14:19:00;9.05;;;2.55;;
44764;SDS011;30484;52.382;5.260;2023-05-19T14:21:44;5.55;;;2.00;;
44764;SDS011;30484;52.382;5.260;2023-05-19T14:24:15;7.70;;;2.30;;
44764;SDS011;30484;52.382;5.260;2023-05-19T14:26:49;8.50;;;2.22;;
44764;SDS011;30484;52.382;5.260;2023-05-19T14:29:20;6.45;;;2.08;;
44764;SDS011;30484;52.382;5.260;2023-05-19T14:31:50;6.97;;;2.00;;
44764;SDS011;30484;52.382;5.260;2023-05-19T14:34:23;6.53;;;2.33;;
44764;SDS011;30484;52.382;5.260;2023-05-19T14:36:58;6.13;;;2.28;;
44764;SDS011;30484;52.382;5.260;2023-05-19T14:39:33;4.57;;;2.20;;
44764;SDS011;30484;52.382;5.260;2023-05-19T14:42:03;6.10;;;2.20;;
44764;SDS011;30484;52.382;5.260;2023-05-19T14:44:34;6.70;;;2.55;;
44764;SDS011;30484;52.382;5.260;2023-05-19T14:47:04;7.75;;;2.35;;
44764;SDS011;30484;52.382;5.260;2023-05-19T14:49:34;9.13;;;2.30;;
44764;SDS011;30484;52.382;5.260;2023-05-19T14:52:06;6.32;;;2.55;;
44764;SDS011;30484;52.382;5.260;2023-05-19T14:54:39;6.45;;;2.55;;
44764;SDS011;30484;52.382;5.260;2023-05-19T14:57:10;4.72;;;2.28;;
44764;SDS011;30484;52.382;5.260;2023-05-19T14:59:40;5.72;;;2.15;;
44764;SDS011;30484;52.382;5.260;2023-05-19T15:02:10;7.57;;;2.03;;
44764;SDS011;30484;52.382;5.260;2023-05-19T15:04:41;6.57;;;2.22;;
44764;SDS011;30484;52.382;5.260;2023-05-19T15:07:15;6.85;;;2.30;;
44764;SDS011;30484;52.382;5.260;2023-05-19T15:09:51;8.80;;;3.43;;
44764;SDS011;30484;52.382;5.260;2023-05-19T15:12:25;5.38;;;2.20;;
44764;SDS011;30484;52.382;5.260;2023-05-19T15:15:02;9.23;;;2.75;;
44764;SDS011;30484;52.382;5.260;2023-05-19T15:17:33;7.07;;;2.42;;
44764;SDS011;30484;52.382;5.260;2023-05-19T15:20:04;8.60;;;2.67;;
44764;SDS011;30484;52.382;5.260;2023-05-19T15:22:34;6.10;;;2.30;;
44764;SDS011;30484;52.382;5.260;2023-05-19T15:25:07;7.38;;;2.88;;
44764;SDS011;30484;52.382;5.260;2023-05-19T15:27:41;11.50;;;5.45;;